KOCW Airport Information

Runway Information
Runway 05 Length 5000 ft width 100 ft
Elevation 32 ft Threshold ft Heading 37
Runway 23 Length 5000 ft Width 100 ft
Elevation 38 ft Threshold 199 ft Heading 217
Runway 11 Length 4000 ft width 150 ft
Elevation 32 ft Threshold ft Heading 92
Runway 29 Length 4000 ft Width 150 ft
Elevation 36 ft Threshold ft Heading 272
Runway 17 Length 5000 ft width 150 ft
Elevation 37 ft Threshold 501 ft Heading 155
Runway 35 Length 5000 ft Width 150 ft
Elevation 35 ft Threshold ft Heading 335
Airport Frequencies
Type AWOS Name AWOS 3 Frequency 120.175 MHZ
Type CNTR Name WASHINGTON Frequency 135.5 MHZ
Type UNIC Name CTAF/UNICO Frequency 122.7 MHZ
Airport Navaids
Airport Weather Information & NOTAM
ADDS - METARS form results

(1719 UTC 27 January 2023)
Data provider http://aviationweather.gov/metar/data/
 
METAR text: KOCW 271715Z AUTO 00000KT 10SM SCT060 10/M04 A3023 RMK AO2 T00951045
Conditions at: KOCW (WASHINGTON , NC, US) observed 1715 UTC 27 January 2023
Temperature: 9.5°C (49°F)
Dewpoint: -4.5°C (24°F) [RH = 37%]
Pressure (altimeter): 30.23 inches Hg (1023.8 mb)
Winds: calm
Visibility: 10 or more miles (16+ km)
Ceiling: at least 12,000 feet AGL
Clouds: scattered clouds at 6000 feet AGL
Weather: automated observation with no human augmentation;
there may or may not be significant weather present at this time

METAR text: KOCW 271655Z AUTO 24009KT 10SM CLR 09/M04 A3024 RMK AO2 T00941043
Conditions at: KOCW (WASHINGTON , NC, US) observed 1655 UTC 27 January 2023
Temperature: 9.4°C (49°F)
Dewpoint: -4.3°C (24°F) [RH = 38%]
Pressure (altimeter): 30.24 inches Hg (1024.1 mb)
Winds: from the WSW (240 degrees) at 10 MPH (9 knots; 4.6 m/s)
Visibility: 10 or more miles (16+ km)
Ceiling: at least 12,000 feet AGL
Clouds: sky clear below 12,000 feet AGL
Weather: automated observation with no human augmentation;
there may or may not be significant weather present at this time

METAR text: KOCW 271635Z AUTO 27007G14KT 10SM CLR 09/M04 A3025 RMK AO2 T00921044
Conditions at: KOCW (WASHINGTON , NC, US) observed 1635 UTC 27 January 2023
Temperature: 9.2°C (49°F)
Dewpoint: -4.4°C (24°F) [RH = 38%]
Pressure (altimeter): 30.25 inches Hg (1024.5 mb)
Winds: from the W (270 degrees) at 8 MPH (7 knots; 3.6 m/s)
gusting to 16 MPH (14 knots; 7.2 m/s)
Visibility: 10 or more miles (16+ km)
Ceiling: at least 12,000 feet AGL
Clouds: sky clear below 12,000 feet AGL
Weather: automated observation with no human augmentation;
there may or may not be significant weather present at this time